Aircraft
UPR1017 PR-QAB Citation
FLKK
Kenneth Kaunda International Airport
FZIA
Kisangani Simisini Airport
Pilot:: Alex
Aircraft:: Cessna Citation CJ4
Alternate: HRYR
Network: poscon
FLIGHT DETAILS
Distance: 972nm Duration 02h 38m
Cruise Speed: Flight Level: 31000
Validation: Validated Type Charter
Flight Fuel
ZFW: 4501
Block Fuel/Initial FOB: 2676
Flight Fuel: 1699
Cargo
Passengers: 6
Cargo: 124
ROUTE
ROUTE: DCT
REMARKS:
DATE
Date: 26-09-02
Departure Time: 1912
Cargo: 124
FLIGHT DETAILS
Crashed: No
Validator Comments: Validado por Rafael
Flight Rating: 88
LANDING ANALYSIS
Landing wind: 12º/5 kt
Landing heading: 277º
Landing VS:: -247 ft/min
Landing IAS:: 95 kt
Landing Force G: 1.2 G
Landing Bank: -3
Landing Pitch: -3
Landing Flaps: 100
Navigation Lights: ON
Landing Lights: ON
Beacon Lights: ON
Strobe Lights: ON
viserfly

ALTITUDE CHART

viserfly

MAIN EVENTS

DATE EVENT IAS ALTITUDE
2026-09-02 19:11:19 FLYacars version 1.3.6 0 3754
2026-09-02 19:11:19 Aircraft boarding in progress 0 3754
2026-09-02 19:11:19 FLAPS 50% 0 3754
2026-09-02 19:11:19 Navigation Lights ON 0 3754
2026-09-02 19:11:19 Beacon Lights ON 0 3754
2026-09-02 19:11:19 Strobe Lights ON 0 3754
2026-09-02 19:11:19 Landing Lights ON 0 3754
2026-09-02 19:11:19 Starting Engine 2 0 3754
2026-09-02 19:11:19 Starting Engine 1 0 3754
2026-09-02 19:11:28 Taxi Lights ON 0 3754
2026-09-02 19:11:39 Aircraft taxiing to runway 2 3754
2026-09-02 19:12:36 Detected Take-off roll, HDG 110, IAS 117kt, GS 116kt, G-force 1.0g, Pitch -4.7deg, Bank 0.0deg, Wind 110/11kt, Temp 16°C 117 3756
2026-09-02 19:12:36 Airborne 117 3756
2026-09-02 19:12:36 Incorrect altimeter settings on takeoff 117 3756
2026-09-02 19:12:43 Gear UP, IAS 145kt, GS 143kt, ALT 76ft AGL 145 3827
2026-09-02 19:13:06 FLAPS 0% 185kt, ALT 5023ft 185 5023
2026-09-02 19:14:16 Landing lights ON above 10000fts 195 11011
2026-09-02 19:14:47 Taxi Lights OFF 225 12686
2026-09-02 19:14:48 Landing Lights OFF 226 12732
2026-09-02 19:21:03 Aircraft on Top Of Climb at 33511ft, IAS 227kt, GS 350kt, HDG 336deg, TAT -37deg, WIND 291/45kt 227 33511
2026-09-02 19:22:57 Overspeed flag 283 33533
2026-09-02 21:24:54 Aircraft on Top Of Descent at 30497ft, IAS 235kt, GS 373kt, HDG 349deg, TAT -28deg, WIND 10/5kt 235 30497
2026-09-02 21:33:43 Taxi Lights ON 261 11216
2026-09-02 21:33:44 Landing Lights ON 261 11180
2026-09-02 21:36:15 Overspeed 250kts below 10000fts 281 5670
2026-09-02 21:49:22 FLAPS 50% 178kt, ALT 3438ft 178 3438
2026-09-02 21:49:26 Gear DOWN, IAS 170kt, GS 176kt, ALT 2127ft AGL 170 3452
2026-09-02 21:49:55 FLAPS 100% 152kt, ALT 2362ft 152 2362
2026-09-02 21:50:24 Stall flag 101 1562
2026-09-02 21:51:09 Landed at destination with a landing rate of -247fpm, G-force 1.2g, Pitch -3.5deg, Bank -2.6deg, HDG 277deg, IAS 95kt, GS 101kt, Wind 012/05kt, Temp 31°C 95 1298
2026-09-02 21:51:21 FLAPS 50% 30 1295
2026-09-02 21:51:22 FLAPS 0% 25 1295
2026-09-02 21:51:22 Aircraft taxiing to apron 23 1295
2026-09-02 21:52:48 Navigation Lights OFF 0 1298
2026-09-02 21:52:48 Beacon Lights OFF 0 1298
2026-09-02 21:52:48 Strobe Lights OFF 0 1298
2026-09-02 21:52:48 Landing Lights OFF 0 1298
2026-09-02 21:52:48 Taxi Lights OFF 0 1298
2026-09-02 21:53:19 Aircraft at gate/stand, ground services are moving into position, disembarkation has begun. Remaining FOB 977kg FLYacars v1.3.6 0 1298
viserfly

ACARS DATA

DATE IAS GS ALTITUDE FUEL CONSUMED OAT FLIGHT STATUS
2026-09-02 19:11:49 21 18 3755 2 16 TAXI TO RUNWAY
2026-09-02 19:12:19 18 10 3755 4 16 TAXI TO RUNWAY
2026-09-02 19:12:49 150 152 4089 18 17 TAKEOFF
2026-09-02 19:13:19 226 220 5383 31 16 INITIAL CLIMB
2026-09-02 19:13:49 243 268 7547 44 12 CLIMB
2026-09-02 19:14:19 194 220 11290 57 5 CLIMB
2026-09-02 19:14:49 228 276 12769 70 4 CLIMB
2026-09-02 19:15:19 237 293 14745 83 2 CLIMB
2026-09-02 19:15:49 238 300 16906 95 -1 CLIMB
2026-09-02 19:16:19 238 303 19063 108 -5 CLIMB
2026-09-02 19:16:49 237 312 20956 120 -9 CLIMB
2026-09-02 19:17:19 238 320 22795 132 -13 CLIMB
2026-09-02 19:17:49 238 328 24475 143 -16 CLIMB
2026-09-02 19:18:19 238 336 26013 155 -20 CLIMB
2026-09-02 19:18:49 238 345 27436 166 -23 CLIMB
2026-09-02 19:19:19 238 352 28747 176 -26 CLIMB
2026-09-02 19:19:49 237 355 30039 187 -29 CLIMB
2026-09-02 19:20:19 230 352 31520 197 -32 CLIMB
2026-09-02 19:20:49 223 344 33112 206 -36 CLIMB
2026-09-02 19:21:19 238 372 33520 215 -37 ENROUTE
2026-09-02 19:21:49 256 400 33534 224 -37 ENROUTE
2026-09-02 19:22:19 270 421 33537 233 -37 ENROUTE
2026-09-02 19:22:49 280 437 33533 242 -37 ENROUTE
2026-09-02 19:23:19 287 449 33546 251 -37 ENROUTE
2026-09-02 19:23:49 293 458 33549 260 -37 ENROUTE
2026-09-02 19:24:19 297 464 33549 269 -37 ENROUTE
2026-09-02 19:24:49 281 440 33545 274 -37 ENROUTE
2026-09-02 19:25:19 269 422 33532 279 -37 ENROUTE
2026-09-02 19:25:49 260 409 33535 284 -36 ENROUTE
2026-09-02 19:26:19 254 400 33536 290 -36 ENROUTE
2026-09-02 19:26:49 249 393 33539 295 -36 ENROUTE
2026-09-02 19:27:19 246 388 33539 300 -36 ENROUTE
2026-09-02 19:27:49 243 384 33539 306 -36 ENROUTE
2026-09-02 19:28:19 241 381 33537 311 -36 ENROUTE
2026-09-02 19:28:49 239 379 33554 316 -36 ENROUTE
2026-09-02 19:29:19 238 378 33556 322 -36 ENROUTE
2026-09-02 19:29:49 237 377 33551 327 -36 ENROUTE
2026-09-02 19:30:19 238 376 33550 332 -36 ENROUTE
2026-09-02 19:30:49 237 375 33548 338 -36 ENROUTE
2026-09-02 19:31:19 237 375 33547 343 -36 ENROUTE
2026-09-02 19:31:49 237 374 33547 349 -37 ENROUTE
2026-09-02 19:32:19 236 374 33546 354 -36 ENROUTE
2026-09-02 19:32:49 236 374 33545 359 -36 ENROUTE
2026-09-02 19:33:19 236 374 33545 365 -36 ENROUTE
2026-09-02 19:33:49 236 373 33545 370 -36 ENROUTE
2026-09-02 19:34:19 236 373 33545 375 -36 ENROUTE
2026-09-02 19:34:49 235 373 33555 381 -36 ENROUTE
2026-09-02 19:35:19 235 374 33555 386 -36 ENROUTE
2026-09-02 19:35:49 235 374 33555 392 -36 ENROUTE
2026-09-02 19:36:19 235 374 33556 397 -36 ENROUTE
2026-09-02 19:36:49 236 375 33555 402 -36 ENROUTE
2026-09-02 19:37:19 236 375 33556 408 -36 ENROUTE
2026-09-02 19:37:49 234 374 33560 413 -36 ENROUTE
2026-09-02 19:38:19 234 376 33567 419 -36 ENROUTE
2026-09-02 19:38:49 234 377 33567 424 -36 ENROUTE
2026-09-02 19:39:19 235 377 33568 429 -36 ENROUTE
2026-09-02 19:39:49 235 378 33570 435 -36 ENROUTE
2026-09-02 19:40:19 235 378 33569 440 -36 ENROUTE
2026-09-02 19:40:49 235 378 33571 446 -36 ENROUTE
2026-09-02 19:41:19 234 379 33576 451 -36 ENROUTE
2026-09-02 19:41:49 235 379 33577 456 -36 ENROUTE
2026-09-02 19:42:19 235 380 33577 462 -36 ENROUTE
2026-09-02 19:42:49 235 380 33578 467 -36 ENROUTE
2026-09-02 19:43:19 236 380 33579 473 -36 ENROUTE
2026-09-02 19:43:49 236 381 33580 478 -37 ENROUTE
2026-09-02 19:44:19 235 381 33585 483 -36 ENROUTE
2026-09-02 19:44:49 235 381 33585 489 -36 ENROUTE
2026-09-02 19:45:19 235 382 33586 494 -36 ENROUTE
2026-09-02 19:45:49 235 382 33586 500 -36 ENROUTE
2026-09-02 19:46:19 235 382 33586 505 -36 ENROUTE
2026-09-02 19:46:49 235 382 33587 510 -36 ENROUTE
2026-09-02 19:47:19 235 382 33587 516 -36 ENROUTE
2026-09-02 19:47:49 235 382 33587 521 -36 ENROUTE
2026-09-02 19:48:19 235 383 33587 527 -36 ENROUTE
2026-09-02 19:48:49 235 382 33590 532 -36 ENROUTE
2026-09-02 19:49:19 235 383 33590 537 -36 ENROUTE
2026-09-02 19:49:49 235 383 33590 543 -36 ENROUTE
2026-09-02 19:50:19 234 383 33598 548 -36 ENROUTE
2026-09-02 19:50:49 235 383 33598 553 -36 ENROUTE
2026-09-02 19:51:19 235 384 33597 559 -36 ENROUTE
2026-09-02 19:51:49 235 384 33598 564 -36 ENROUTE
2026-09-02 19:52:19 235 384 33598 570 -36 ENROUTE
2026-09-02 19:52:49 234 385 33598 575 -36 ENROUTE
2026-09-02 19:53:19 234 385 33601 580 -36 ENROUTE
2026-09-02 19:53:49 234 385 33606 586 -36 ENROUTE
2026-09-02 19:54:19 234 386 33606 591 -36 ENROUTE
2026-09-02 19:54:49 235 387 33606 597 -36 ENROUTE
2026-09-02 19:55:19 235 387 33608 602 -36 ENROUTE
2026-09-02 19:55:49 235 387 33608 607 -36 ENROUTE
2026-09-02 19:56:19 236 387 33610 613 -36 ENROUTE
2026-09-02 19:56:49 235 388 33611 618 -36 ENROUTE
2026-09-02 19:57:19 236 387 33611 623 -36 ENROUTE
2026-09-02 19:57:49 236 388 33611 629 -36 ENROUTE
2026-09-02 19:58:19 235 388 33611 634 -36 ENROUTE
2026-09-02 19:58:49 235 388 33612 640 -36 ENROUTE
2026-09-02 19:59:19 235 388 33614 645 -36 ENROUTE
2026-09-02 19:59:49 235 388 33614 650 -36 ENROUTE
2026-09-02 20:00:19 235 388 33614 656 -36 ENROUTE
2026-09-02 20:00:49 235 388 33615 661 -36 ENROUTE
2026-09-02 20:01:19 235 388 33615 666 -36 ENROUTE
2026-09-02 20:01:49 235 388 33615 672 -36 ENROUTE
2026-09-02 20:02:19 235 388 33615 677 -36 ENROUTE
2026-09-02 20:02:49 235 388 33615 683 -36 ENROUTE
2026-09-02 20:03:19 235 388 33615 688 -36 ENROUTE
2026-09-02 20:03:49 235 388 33615 693 -36 ENROUTE
2026-09-02 20:04:19 235 388 33616 699 -36 ENROUTE
2026-09-02 20:04:49 235 388 33616 704 -36 ENROUTE
2026-09-02 20:05:19 235 388 33616 709 -36 ENROUTE
2026-09-02 20:05:49 235 388 33616 715 -36 ENROUTE
2026-09-02 20:06:19 235 388 33616 720 -36 ENROUTE
2026-09-02 20:06:49 235 388 33616 726 -36 ENROUTE
2026-09-02 20:07:19 235 388 33616 731 -36 ENROUTE
2026-09-02 20:07:49 234 388 33620 736 -36 ENROUTE
2026-09-02 20:08:19 234 388 33620 742 -35 ENROUTE
2026-09-02 20:08:49 234 388 33623 747 -35 ENROUTE
2026-09-02 20:09:19 234 388 33623 752 -35 ENROUTE
2026-09-02 20:09:49 234 388 33623 758 -35 ENROUTE
2026-09-02 20:10:19 234 388 33623 763 -35 ENROUTE
2026-09-02 20:10:49 234 388 33624 768 -35 ENROUTE
2026-09-02 20:11:19 234 388 33624 774 -35 ENROUTE
2026-09-02 20:11:49 234 388 33629 779 -35 ENROUTE
2026-09-02 20:12:19 234 388 33629 784 -35 ENROUTE
2026-09-02 20:12:49 234 388 33630 790 -35 ENROUTE
2026-09-02 20:13:19 234 388 33630 795 -35 ENROUTE
2026-09-02 20:13:49 234 388 33630 801 -35 ENROUTE
2026-09-02 20:14:19 235 388 33631 806 -35 ENROUTE
2026-09-02 20:14:49 236 388 33637 811 -35 ENROUTE
2026-09-02 20:15:19 235 387 33637 817 -35 ENROUTE
2026-09-02 20:15:49 235 387 33637 822 -35 ENROUTE
2026-09-02 20:16:19 235 387 33638 827 -35 ENROUTE
2026-09-02 20:16:49 235 387 33639 833 -35 ENROUTE
2026-09-02 20:17:19 235 387 33638 838 -35 ENROUTE
2026-09-02 20:17:49 235 387 33640 843 -36 ENROUTE
2026-09-02 20:18:19 235 386 33643 849 -36 ENROUTE
2026-09-02 20:18:49 238 385 33643 854 -36 ENROUTE
2026-09-02 20:19:19 237 385 33644 859 -36 ENROUTE
2026-09-02 20:19:49 235 385 33644 865 -36 ENROUTE
2026-09-02 20:20:19 237 385 33644 870 -36 ENROUTE
2026-09-02 20:20:49 234 385 33643 875 -36 ENROUTE
2026-09-02 20:21:19 234 386 33642 881 -36 ENROUTE
2026-09-02 20:21:49 235 387 33640 886 -36 ENROUTE
2026-09-02 20:22:19 235 387 33641 892 -36 ENROUTE
2026-09-02 20:22:49 235 387 33641 897 -36 ENROUTE
2026-09-02 20:23:19 235 387 33642 902 -36 ENROUTE
2026-09-02 20:23:49 236 387 33643 908 -36 ENROUTE
2026-09-02 20:24:19 235 387 33644 913 -36 ENROUTE
2026-09-02 20:24:49 235 387 33645 918 -36 ENROUTE
2026-09-02 20:25:19 235 387 33644 924 -36 ENROUTE
2026-09-02 20:25:49 235 387 33644 929 -36 ENROUTE
2026-09-02 20:26:19 235 387 33644 935 -36 ENROUTE
2026-09-02 20:26:49 235 387 33645 940 -36 ENROUTE
2026-09-02 20:27:19 234 387 33643 945 -36 ENROUTE
2026-09-02 20:27:49 234 387 33643 951 -36 ENROUTE
2026-09-02 20:28:19 235 388 33643 956 -36 ENROUTE
2026-09-02 20:28:49 235 388 33644 961 -35 ENROUTE
2026-09-02 20:29:19 235 388 33644 967 -35 ENROUTE
2026-09-02 20:29:49 235 388 33645 972 -36 ENROUTE
2026-09-02 20:30:19 234 388 33644 978 -35 ENROUTE
2026-09-02 20:30:49 234 389 33644 983 -35 ENROUTE
2026-09-02 20:31:19 234 389 33643 988 -35 ENROUTE
2026-09-02 20:31:49 235 390 33645 994 -35 ENROUTE
2026-09-02 20:32:19 235 390 33645 999 -35 ENROUTE
2026-09-02 20:32:49 235 390 33646 1004 -35 ENROUTE
2026-09-02 20:33:19 235 390 33647 1010 -35 ENROUTE
2026-09-02 20:33:49 235 390 33647 1015 -35 ENROUTE
2026-09-02 20:34:19 235 390 33647 1020 -35 ENROUTE
2026-09-02 20:34:49 235 390 33646 1026 -35 ENROUTE
2026-09-02 20:35:19 235 390 33647 1031 -35 ENROUTE
2026-09-02 20:35:49 235 390 33647 1037 -35 ENROUTE
2026-09-02 20:36:19 234 390 33647 1042 -35 ENROUTE
2026-09-02 20:36:49 234 390 33646 1047 -35 ENROUTE
2026-09-02 20:37:19 234 391 33646 1053 -35 ENROUTE
2026-09-02 20:37:49 234 391 33646 1058 -35 ENROUTE
2026-09-02 20:38:19 234 391 33647 1063 -35 ENROUTE
2026-09-02 20:38:49 235 391 33647 1069 -35 ENROUTE
2026-09-02 20:39:19 235 391 33648 1074 -35 ENROUTE
2026-09-02 20:39:49 234 391 33648 1079 -35 ENROUTE
2026-09-02 20:40:19 234 391 33647 1085 -35 ENROUTE
2026-09-02 20:40:49 234 391 33648 1090 -35 ENROUTE
2026-09-02 20:41:19 234 391 33649 1095 -35 ENROUTE
2026-09-02 20:41:49 234 391 33649 1101 -35 ENROUTE
2026-09-02 20:42:19 235 391 33649 1106 -35 ENROUTE
2026-09-02 20:42:49 235 391 33650 1112 -35 ENROUTE
2026-09-02 20:43:19 234 391 33650 1117 -35 ENROUTE
2026-09-02 20:43:49 235 391 33651 1122 -35 ENROUTE
2026-09-02 20:44:19 234 391 33650 1128 -35 ENROUTE
2026-09-02 20:44:49 234 391 33650 1133 -35 ENROUTE
2026-09-02 20:45:19 235 391 33651 1138 -35 ENROUTE
2026-09-02 20:45:49 234 391 33651 1144 -35 ENROUTE
2026-09-02 20:46:19 234 392 33651 1149 -35 ENROUTE
2026-09-02 20:46:49 234 392 33651 1154 -35 ENROUTE
2026-09-02 20:47:19 234 392 33651 1160 -35 ENROUTE
2026-09-02 20:47:49 234 392 33652 1165 -35 ENROUTE
2026-09-02 20:48:19 234 392 33652 1170 -35 ENROUTE
2026-09-02 20:48:49 234 392 33652 1176 -35 ENROUTE
2026-09-02 20:49:19 234 392 33653 1181 -35 ENROUTE
2026-09-02 20:49:49 234 393 33652 1186 -35 ENROUTE
2026-09-02 20:50:19 234 393 33653 1192 -35 ENROUTE
2026-09-02 20:50:49 234 392 33653 1197 -35 ENROUTE
2026-09-02 20:51:19 234 392 33653 1202 -35 ENROUTE
2026-09-02 20:51:49 234 392 33654 1208 -35 ENROUTE
2026-09-02 20:52:19 234 393 33653 1213 -35 ENROUTE
2026-09-02 20:52:49 234 393 33654 1218 -35 ENROUTE
2026-09-02 20:53:19 234 393 33654 1224 -35 ENROUTE
2026-09-02 20:53:49 234 393 33655 1229 -35 ENROUTE
2026-09-02 20:54:19 235 393 33654 1234 -35 ENROUTE
2026-09-02 20:54:49 235 393 33655 1240 -35 ENROUTE
2026-09-02 20:55:19 234 393 33656 1245 -35 ENROUTE
2026-09-02 20:55:49 234 392 33657 1250 -35 ENROUTE
2026-09-02 20:56:19 234 392 33655 1256 -35 ENROUTE
2026-09-02 20:56:49 234 392 33657 1261 -35 ENROUTE
2026-09-02 20:57:19 234 392 33656 1266 -35 ENROUTE
2026-09-02 20:57:49 234 393 33656 1272 -35 ENROUTE
2026-09-02 20:58:19 234 393 33657 1277 -35 ENROUTE
2026-09-02 20:58:49 234 393 33658 1282 -35 ENROUTE
2026-09-02 20:59:19 234 393 33658 1288 -35 ENROUTE
2026-09-02 20:59:49 234 393 33657 1293 -35 ENROUTE
2026-09-02 21:00:19 234 393 33658 1298 -35 ENROUTE
2026-09-02 21:00:49 234 393 33658 1304 -35 ENROUTE
2026-09-02 21:01:19 234 393 33659 1309 -35 ENROUTE
2026-09-02 21:01:49 234 393 33658 1314 -35 ENROUTE
2026-09-02 21:02:19 234 393 33658 1320 -35 ENROUTE
2026-09-02 21:02:49 234 393 33658 1325 -35 ENROUTE
2026-09-02 21:03:19 234 393 33659 1330 -35 ENROUTE
2026-09-02 21:03:49 234 393 33659 1336 -35 ENROUTE
2026-09-02 21:04:19 234 393 33660 1341 -35 ENROUTE
2026-09-02 21:04:49 234 393 33660 1346 -35 ENROUTE
2026-09-02 21:05:19 234 393 33659 1352 -35 ENROUTE
2026-09-02 21:05:49 234 393 33660 1357 -35 ENROUTE
2026-09-02 21:06:19 234 393 33660 1362 -35 ENROUTE
2026-09-02 21:06:49 234 393 33660 1368 -35 ENROUTE
2026-09-02 21:07:19 234 392 33661 1373 -35 ENROUTE
2026-09-02 21:07:49 234 392 33661 1378 -35 ENROUTE
2026-09-02 21:08:19 234 392 33661 1383 -35 ENROUTE
2026-09-02 21:08:49 234 392 33661 1389 -35 ENROUTE
2026-09-02 21:09:19 234 392 33662 1394 -35 ENROUTE
2026-09-02 21:09:49 234 392 33662 1399 -35 ENROUTE
2026-09-02 21:10:19 235 392 33663 1405 -35 ENROUTE
2026-09-02 21:10:49 234 391 33663 1410 -35 ENROUTE
2026-09-02 21:11:19 234 391 33663 1415 -35 ENROUTE
2026-09-02 21:11:49 234 390 33660 1421 -35 ENROUTE
2026-09-02 21:12:19 234 390 33660 1426 -35 ENROUTE
2026-09-02 21:12:49 234 390 33660 1431 -35 ENROUTE
2026-09-02 21:13:19 234 390 33660 1437 -35 ENROUTE
2026-09-02 21:13:49 234 390 33660 1442 -35 ENROUTE
2026-09-02 21:14:19 234 390 33655 1447 -35 ENROUTE
2026-09-02 21:14:49 235 389 33655 1453 -35 ENROUTE
2026-09-02 21:15:19 234 389 33655 1458 -35 ENROUTE
2026-09-02 21:15:49 234 389 33656 1463 -35 ENROUTE
2026-09-02 21:16:19 234 389 33656 1469 -35 ENROUTE
2026-09-02 21:16:49 234 389 33656 1474 -35 ENROUTE
2026-09-02 21:17:19 235 389 33656 1479 -35 ENROUTE
2026-09-02 21:17:49 234 388 33653 1485 -35 ENROUTE
2026-09-02 21:18:19 234 388 33654 1490 -35 ENROUTE
2026-09-02 21:18:49 234 388 33654 1495 -35 ENROUTE
2026-09-02 21:19:19 235 388 33654 1501 -35 ENROUTE
2026-09-02 21:19:49 235 387 33654 1506 -35 ENROUTE
2026-09-02 21:20:19 234 387 33654 1511 -35 ENROUTE
2026-09-02 21:20:49 233 388 33651 1517 -35 ENROUTE
2026-09-02 21:21:19 235 387 33652 1522 -35 ENROUTE
2026-09-02 21:21:49 234 387 33652 1527 -35 ENROUTE
2026-09-02 21:22:19 233 387 33652 1532 -35 ENROUTE
2026-09-02 21:22:49 235 387 33652 1538 -35 ENROUTE
2026-09-02 21:23:19 230 381 33652 1543 -35 ENROUTE
2026-09-02 21:23:49 230 376 32873 1545 -33 DESCENT
2026-09-02 21:24:19 231 375 31775 1547 -31 DESCENT
2026-09-02 21:24:49 233 373 30680 1549 -28 DESCENT
2026-09-02 21:25:19 237 372 29588 1551 -26 DESCENT
2026-09-02 21:25:49 239 370 28495 1554 -23 DESCENT
2026-09-02 21:26:19 240 369 27404 1556 -21 DESCENT
2026-09-02 21:26:49 243 368 26311 1558 -18 DESCENT
2026-09-02 21:27:19 245 367 25220 1561 -16 DESCENT
2026-09-02 21:27:49 241 358 24126 1563 -13 DESCENT
2026-09-02 21:28:19 241 351 23029 1565 -11 DESCENT
2026-09-02 21:28:49 239 346 21932 1566 -9 DESCENT
2026-09-02 21:29:19 241 342 20835 1568 -7 DESCENT
2026-09-02 21:29:49 244 339 19737 1570 -6 DESCENT
2026-09-02 21:30:19 245 336 18643 1572 -4 DESCENT
2026-09-02 21:30:49 248 333 17550 1574 -2 DESCENT
2026-09-02 21:31:19 250 330 16458 1576 0 DESCENT
2026-09-02 21:31:49 253 327 15367 1578 0 DESCENT
2026-09-02 21:32:19 256 325 14273 1580 2 DESCENT
2026-09-02 21:32:49 257 322 13180 1582 4 DESCENT
2026-09-02 21:33:19 259 321 12085 1585 6 DESCENT
2026-09-02 21:33:49 262 321 10992 1587 8 DESCENT
2026-09-02 21:34:19 265 320 9899 1589 10 DESCENT
2026-09-02 21:34:49 268 318 8807 1592 12 DESCENT
2026-09-02 21:35:19 272 316 7715 1594 15 DESCENT
2026-09-02 21:35:49 274 315 6621 1597 17 DESCENT
2026-09-02 21:36:19 281 312 5531 1599 19 DESCENT
2026-09-02 21:36:49 284 305 4440 1602 21 DESCENT
2026-09-02 21:37:19 271 286 3838 1604 22 ENROUTE
2026-09-02 21:37:49 254 266 3815 1607 22 ENROUTE
2026-09-02 21:38:19 231 245 3823 1609 22 ENROUTE
2026-09-02 21:38:49 223 234 3819 1612 22 ENROUTE
2026-09-02 21:39:19 222 233 3837 1614 22 CLIMB
2026-09-02 21:39:49 219 229 3820 1617 22 ENROUTE
2026-09-02 21:40:19 215 227 3828 1619 22 ENROUTE
2026-09-02 21:40:49 215 224 3826 1622 22 ENROUTE
2026-09-02 21:41:19 212 224 3820 1625 22 ENROUTE
2026-09-02 21:41:49 209 222 3822 1627 22 ENROUTE
2026-09-02 21:42:19 210 221 3830 1630 22 ENROUTE
2026-09-02 21:42:49 212 221 3832 1633 22 ENROUTE
2026-09-02 21:43:19 210 221 3827 1635 22 ENROUTE
2026-09-02 21:43:49 211 222 3825 1638 22 ENROUTE
2026-09-02 21:44:19 209 221 3825 1641 22 ENROUTE
2026-09-02 21:44:49 209 221 3825 1643 22 ENROUTE
2026-09-02 21:45:19 212 224 3833 1648 22 ENROUTE
2026-09-02 21:45:49 209 222 3824 1653 22 ENROUTE
2026-09-02 21:46:19 210 222 3827 1659 22 ENROUTE
2026-09-02 21:46:49 210 222 3828 1664 22 ENROUTE
2026-09-02 21:47:19 211 225 3826 1669 22 ENROUTE
2026-09-02 21:47:49 214 226 3832 1675 22 ENROUTE
2026-09-02 21:48:19 211 223 3826 1680 22 ENROUTE
2026-09-02 21:48:49 215 223 3833 1685 22 ENROUTE
2026-09-02 21:49:19 188 191 3354 1686 23 DESCENT
2026-09-02 21:49:49 157 162 2489 1688 26 APPROACH
2026-09-02 21:50:19 112 119 1629 1689 31 ON FINAL
2026-09-02 21:50:49 107 115 1440 1692 31 ON FINAL
2026-09-02 21:51:19 42 44 1295 1694 30 ON FINAL
2026-09-02 21:51:49 26 27 1295 1696 30 TAXI TO APRON
2026-09-02 21:52:19 21 21 1297 1698 31 TAXI TO APRON
2026-09-02 21:52:49 0 0 1298 1699 31 TAXI TO APRON
  • Join our VA!

    It has been 11 years of great learning, friendships, and stories.

  • Sign up now!